SKBG/BGA METAR and TAF weather

Enter ICAO airport designator
Station Type Date Time Source
SKBG METAR 2021/09/28 16:00 UTC NOAA

SKBG 281600Z 30004KT 9999 SCT015 BKN090 24/19 Q1017 RMK A3005


Station Type Date Time Source
SKBG Decoded METAR 2021/09/28 16:00 UTC NOAA

Bucaramanga / Palonegro, Colombia (SKBG) 07-06N 073-12W
Sep 28, 2021 - 12:00 PM EDT / 2021.09.28 1600 UTC
Wind: from the WNW (300 degrees) at 5 MPH (4 KT):0
Visibility: greater than 7 mile(s):0
Sky conditions: mostly cloudy
Temperature: 75 F (24 C)
Dew Point: 66 F (19 C)
Relative Humidity: 73%
Pressure (altimeter): 30.03 in. Hg (1017 hPa)
ob: SKBG 281600Z 30004KT 9999 SCT015 BKN090 24/19 Q1017 RMK A3005
cycle: 16

Station Type Date Time Source
SKBG TAF 2021/09/28 12:39 UTC NOAA

TAF TAF SKBG 281030Z 2812/2912 19006KT 9999 SCT010 BKN070
TEMPO 2812/2815 5000 DZRA BCFG BKN010
BECMG 2817/2819 32008KT SCT015 PROB40
TEMPO 2819/2823 5000 TSRA BKN010CB TX29/2818Z TN18/2910Z

Example: see airport list